Terminal Aerodrome Forecast
Issued by NWS Jackson, MS

Home | Current Version | Previous Version | Text Only | Print | Product List | Glossary On
Versions: 1 2 3 4 5 6 7 8 9 10 11 12 13
000
FTUS44 KJAN 231700
TAFGLH
TAF
KGLH 231732Z 2318/2418 13018G25KT P6SM -RA BKN015 OVC025
     FM232100 19014G24KT P6SM -RA SCT007 BKN015
     FM232300 20013KT P6SM OVC025
     FM240200 21017G27KT P6SM FEW040=

USA.gov is the U.S. government's official web portal to all federal, state and local government web resources and services.